Bolivar, Argentina
Current Conditions -  °F | °C
As of 3:00 PM on Monday 26 Jan 2015 (Local Time) from SAEZ Reporting Station
Clear Clear  
Wind Chill: 93°   Ceiling: Unl
Heat Index: 99°   Visibility: 6mi
Dew Point: 70°   Wind: 10mph
Humidity: 46%   Direction: 290°WNW
Pressure: 29.77"   Gusts: NA
Location:  36.23°S, 61.12°W
Report Text: SAEZ 261800Z 29009KT 260V350 CAVOK 34/21 Q1008
Loading
Personal Weather Stations






























Interactive Weather Map New forecast layout! Learn more

10-Day Weather Forecast

Advertisements
Track Severe Weather on mobile